createdAt,value
2019-05-15T00:01:08.846Z,73.30
2019-05-15T00:03:39.183Z,73.20
2019-05-15T00:06:08.685Z,73.30
2019-05-15T00:08:38.771Z,74.10
2019-05-15T00:11:08.428Z,73.80
2019-05-15T00:13:38.901Z,74.20
2019-05-15T00:16:08.577Z,74.00
2019-05-15T00:18:39.077Z,74.20
2019-05-15T00:21:09.430Z,74.80
2019-05-15T00:23:38.945Z,74.50
2019-05-15T00:26:09.193Z,74.70
2019-05-15T00:28:39.044Z,74.70
2019-05-15T00:31:09.013Z,75.40
2019-05-15T00:33:39.381Z,75.80
2019-05-15T00:36:08.870Z,76.30
2019-05-15T00:38:38.949Z,76.50
2019-05-15T00:41:09.426Z,76.40
2019-05-15T00:43:38.913Z,75.60
2019-05-15T00:46:09.251Z,76.60
2019-05-15T00:48:39.862Z,76.00
2019-05-15T00:51:09.345Z,75.70
2019-05-15T00:53:38.921Z,76.50
2019-05-15T00:56:08.910Z,76.50
2019-05-15T00:58:40.204Z,77.00
2019-05-15T01:01:09.164Z,77.00
2019-05-15T01:03:38.968Z,76.90
2019-05-15T01:06:08.428Z,76.90
2019-05-15T01:08:39.277Z,77.40
2019-05-15T01:11:09.283Z,77.80
2019-05-15T01:13:38.981Z,77.60
2019-05-15T01:16:09.092Z,78.00
2019-05-15T01:18:38.820Z,77.60
2019-05-15T01:21:08.516Z,77.80
2019-05-15T01:23:39.059Z,78.30
2019-05-15T01:26:08.550Z,78.30
2019-05-15T01:28:38.359Z,78.60
2019-05-15T01:31:08.535Z,78.50
2019-05-15T01:33:39.200Z,78.60
2019-05-15T01:36:08.803Z,78.80
2019-05-15T01:38:38.977Z,78.60
2019-05-15T01:41:09.726Z,78.30
2019-05-15T01:43:39.006Z,79.10
2019-05-15T01:46:08.588Z,79.20
2019-05-15T01:48:38.814Z,79.50
2019-05-15T01:51:09.354Z,79.60
2019-05-15T01:53:38.725Z,80.40
2019-05-15T01:56:08.413Z,79.80
2019-05-15T01:58:38.299Z,80.20
2019-05-15T02:01:08.058Z,80.40
2019-05-15T02:03:38.517Z,80.70
2019-05-15T02:06:08.413Z,79.70
2019-05-15T02:08:39.254Z,80.20
2019-05-15T02:11:09.314Z,80.10
2019-05-15T02:13:39.063Z,80.20
2019-05-15T02:16:08.632Z,80.50
2019-05-15T02:18:39.231Z,80.90
2019-05-15T02:21:10.382Z,81.30
2019-05-15T02:23:40.132Z,81.70
2019-05-15T02:26:09.444Z,81.80
2019-05-15T02:28:38.633Z,82.10
2019-05-15T02:31:10.343Z,82.20
2019-05-15T02:33:39.886Z,82.00
2019-05-15T02:36:09.860Z,81.90
2019-05-15T02:38:41.018Z,82.10
2019-05-15T02:41:10.221Z,82.10
2019-05-15T02:43:39.551Z,82.30
2019-05-15T02:46:10.092Z,82.60
2019-05-15T02:48:41.081Z,82.80
2019-05-15T02:51:10.408Z,83.50
2019-05-15T02:53:39.988Z,83.20
2019-05-15T02:56:09.651Z,83.10
2019-05-15T02:58:39.891Z,83.00
2019-05-15T03:01:09.696Z,82.80
2019-05-15T03:03:39.267Z,83.10
2019-05-15T03:06:09.988Z,83.30
2019-05-15T03:08:40.209Z,83.80
2019-05-15T03:11:10.117Z,83.30
2019-05-15T03:13:39.602Z,82.90
2019-05-15T03:16:10.129Z,83.00
2019-05-15T03:18:40.061Z,83.70
2019-05-15T03:21:09.553Z,83.50
2019-05-15T03:23:40.500Z,83.40
2019-05-15T03:26:09.939Z,83.60
2019-05-15T03:28:39.599Z,84.10
2019-05-15T03:31:35.206Z,84.70
2019-05-15T03:33:45.707Z,84.70
2019-05-15T03:36:13.121Z,84.90
2019-05-15T03:38:41.553Z,84.60
2019-05-15T03:41:10.811Z,85.10
2019-05-15T03:43:40.035Z,85.30
2019-05-15T03:46:09.364Z,85.00
2019-05-15T03:48:40.321Z,85.00
2019-05-15T03:51:09.563Z,85.10
2019-05-15T03:53:39.941Z,84.70
2019-05-15T03:56:10.069Z,84.90
2019-05-15T03:58:40.397Z,86.00
2019-05-15T04:01:27.608Z,86.00
2019-05-15T04:03:40.546Z,85.60
2019-05-15T04:06:10.313Z,86.50
2019-05-15T04:08:39.644Z,85.40
2019-05-15T04:11:09.369Z,85.00
2019-05-15T04:13:39.591Z,84.80
2019-05-15T04:16:10.360Z,84.70
2019-05-15T04:18:40.279Z,84.50
2019-05-15T04:21:09.679Z,84.70
2019-05-15T04:23:39.951Z,84.60
2019-05-15T04:26:10.735Z,84.80
2019-05-15T04:28:41.831Z,85.00
2019-05-15T04:31:11.369Z,85.10
2019-05-15T04:33:40.690Z,85.20
2019-05-15T04:36:10.140Z,85.50
2019-05-15T04:38:39.689Z,84.60
2019-05-15T04:41:09.887Z,84.80
2019-05-15T04:43:44.380Z,84.40
2019-05-15T04:46:10.448Z,84.70
2019-05-15T04:48:40.118Z,84.50
2019-05-15T04:51:09.877Z,84.00
2019-05-15T04:53:39.816Z,84.00
2019-05-15T04:56:09.627Z,83.90
2019-05-15T04:58:39.732Z,83.80
2019-05-15T05:01:09.564Z,83.60
2019-05-15T05:03:39.711Z,83.60
2019-05-15T05:06:10.174Z,83.70
2019-05-15T05:08:39.906Z,83.70
2019-05-15T05:11:09.826Z,83.60
2019-05-15T05:13:39.651Z,83.30
2019-05-15T05:16:09.715Z,83.10
2019-05-15T05:18:41.287Z,82.80
2019-05-15T05:21:09.610Z,82.80
2019-05-15T05:23:38.911Z,82.90
2019-05-15T05:26:10.987Z,82.90
2019-05-15T05:28:38.596Z,82.60
2019-05-15T05:31:08.364Z,81.80
2019-05-15T05:33:38.264Z,82.10
2019-05-15T05:36:08.032Z,82.90
2019-05-15T05:38:38.653Z,82.90
2019-05-15T05:41:08.379Z,82.80
2019-05-15T05:43:38.528Z,82.60
2019-05-15T05:46:09.291Z,83.00
2019-05-15T05:48:38.658Z,81.50
2019-05-15T05:51:09.322Z,81.30
2019-05-15T05:53:41.237Z,81.60
2019-05-15T05:56:09.486Z,81.60
2019-05-15T05:58:39.144Z,80.80
2019-05-15T06:01:09.325Z,81.00
2019-05-15T06:03:38.956Z,80.90
2019-05-15T06:06:09.891Z,80.50
2019-05-15T06:08:39.095Z,80.40
2019-05-15T06:11:09.743Z,80.10
2019-05-15T06:13:39.263Z,79.90
2019-05-15T06:16:08.603Z,79.00
2019-05-15T06:18:38.788Z,79.90
2019-05-15T06:21:09.109Z,78.60
2019-05-15T06:23:45.307Z,78.70
2019-05-15T06:26:09.723Z,77.70
2019-05-15T06:28:39.608Z,77.10
2019-05-15T06:31:09.257Z,75.80
2019-05-15T06:33:38.605Z,75.30
2019-05-15T06:36:08.982Z,75.70
2019-05-15T06:38:39.238Z,76.50
2019-05-15T06:41:08.913Z,76.30
2019-05-15T06:43:38.915Z,75.30
2019-05-15T06:46:09.118Z,74.60
2019-05-15T06:48:38.644Z,74.20
2019-05-15T06:51:08.939Z,73.60
2019-05-15T06:53:38.608Z,73.70
2019-05-15T06:56:08.133Z,73.30
2019-05-15T06:58:38.602Z,72.40
2019-05-15T07:01:08.839Z,73.40
2019-05-15T07:03:39.286Z,72.10
2019-05-15T07:06:09.393Z,70.60
2019-05-15T07:08:39.169Z,70.40
2019-05-15T07:11:08.810Z,70.50
2019-05-15T07:13:38.615Z,70.70
2019-05-15T07:16:08.205Z,70.80
2019-05-15T07:18:39.097Z,70.80
2019-05-15T07:21:10.242Z,70.30
2019-05-15T07:23:39.100Z,68.90
2019-05-15T07:26:09.485Z,69.00
2019-05-15T07:28:39.066Z,67.60
2019-05-15T07:31:11.561Z,68.20
2019-05-15T07:33:43.275Z,67.00
2019-05-15T07:36:09.582Z,66.30
2019-05-15T07:38:39.331Z,65.90
2019-05-15T07:41:10.256Z,64.90
2019-05-15T07:43:39.321Z,64.30
2019-05-15T07:46:08.681Z,63.60
2019-05-15T07:48:38.339Z,63.10
2019-05-15T07:51:11.700Z,64.20
2019-05-15T07:53:38.682Z,64.00
2019-05-15T07:56:11.913Z,63.60
2019-05-15T07:58:38.758Z,62.60
2019-05-15T08:01:09.916Z,60.70
2019-05-15T08:03:55.034Z,61.70
2019-05-15T08:06:09.959Z,60.30
2019-05-15T08:08:39.574Z,60.40
2019-05-15T08:11:20.413Z,59.50
2019-05-15T08:13:39.670Z,59.00
2019-05-15T08:16:08.791Z,59.00
2019-05-15T08:18:39.382Z,58.70
2019-05-15T08:21:09.208Z,59.00
2019-05-15T08:23:39.091Z,59.50
2019-05-15T08:26:08.905Z,59.30
2019-05-15T08:28:38.449Z,58.90
2019-05-15T08:31:10.152Z,59.30
2019-05-15T08:33:39.008Z,58.90
2019-05-15T08:36:08.684Z,58.90
2019-05-15T08:38:38.554Z,59.20
2019-05-15T08:41:11.287Z,59.50
2019-05-15T08:43:38.473Z,59.70
2019-05-15T08:46:08.306Z,59.70
2019-05-15T08:48:38.405Z,58.20
2019-05-15T08:51:08.739Z,56.60
2019-05-15T08:53:38.297Z,56.60
2019-05-15T08:56:08.497Z,56.30
2019-05-15T08:58:38.337Z,57.00
2019-05-15T09:01:09.861Z,57.70
2019-05-15T09:03:38.420Z,58.30
2019-05-15T09:06:09.201Z,57.90
2019-05-15T09:08:39.307Z,57.20
2019-05-15T09:11:09.260Z,56.70
2019-05-15T09:13:43.412Z,56.90
2019-05-15T09:16:09.475Z,56.70
2019-05-15T09:18:39.316Z,55.80
2019-05-15T09:21:08.920Z,55.90
2019-05-15T09:23:38.915Z,55.90
2019-05-15T09:26:09.167Z,54.40
2019-05-15T09:28:39.311Z,53.80
2019-05-15T09:31:08.765Z,53.40
2019-05-15T09:33:38.733Z,52.40
2019-05-15T09:36:09.101Z,52.30
2019-05-15T09:38:39.096Z,52.40
2019-05-15T09:41:09.183Z,52.80
2019-05-15T09:43:40.581Z,53.40
2019-05-15T09:46:10.387Z,52.60
2019-05-15T09:48:39.582Z,52.30
2019-05-15T09:51:09.426Z,51.20
2019-05-15T09:53:39.372Z,51.60
2019-05-15T09:56:08.866Z,51.00
2019-05-15T09:58:38.467Z,49.90
2019-05-15T10:01:08.473Z,49.40
2019-05-15T10:03:39.088Z,49.50
2019-05-15T10:06:09.154Z,50.00
2019-05-15T10:08:39.796Z,49.90
2019-05-15T10:11:09.360Z,49.40
2019-05-15T10:13:38.744Z,49.90
2019-05-15T10:16:08.492Z,50.60
2019-05-15T10:18:39.051Z,50.20
2019-05-15T10:21:09.164Z,50.50
2019-05-15T10:23:40.413Z,50.10
2019-05-15T10:26:13.637Z,50.40
2019-05-15T10:28:40.416Z,51.30
2019-05-15T10:31:09.730Z,50.40
2019-05-15T10:33:39.448Z,50.20
2019-05-15T10:36:08.706Z,50.50
2019-05-15T10:38:39.247Z,50.70
2019-05-15T10:41:14.100Z,51.10
2019-05-15T10:43:46.461Z,50.10
2019-05-15T10:46:13.078Z,51.00
2019-05-15T10:48:41.154Z,50.40
2019-05-15T10:51:10.612Z,50.70
2019-05-15T10:53:39.767Z,50.20
2019-05-15T10:56:09.107Z,50.60
2019-05-15T10:58:39.184Z,50.30
2019-05-15T11:01:11.295Z,50.90
2019-05-15T11:03:40.036Z,51.70
2019-05-15T11:06:09.647Z,51.60
2019-05-15T11:08:40.641Z,51.10
2019-05-15T11:11:09.818Z,51.30
2019-05-15T11:13:38.914Z,50.90
2019-05-15T11:16:08.116Z,50.10
2019-05-15T11:18:39.330Z,50.10
2019-05-15T11:21:08.359Z,49.60
2019-05-15T11:23:42.164Z,49.00
2019-05-15T11:26:08.904Z,49.00
2019-05-15T11:28:39.200Z,49.70
2019-05-15T11:31:10.416Z,49.60
2019-05-15T11:33:39.903Z,50.60
2019-05-15T11:36:09.035Z,50.60
2019-05-15T11:38:38.385Z,50.60
2019-05-15T11:41:08.660Z,52.10
2019-05-15T11:43:38.773Z,52.40
2019-05-15T11:46:09.921Z,52.30
2019-05-15T11:48:39.361Z,53.00
2019-05-15T11:51:09.548Z,52.50
2019-05-15T11:53:39.733Z,51.70
2019-05-15T11:56:09.647Z,52.30
2019-05-15T11:58:39.103Z,52.30
2019-05-15T12:01:08.748Z,52.70
2019-05-15T12:03:38.738Z,54.10
2019-05-15T12:06:18.523Z,54.20
2019-05-15T12:08:38.971Z,54.30
2019-05-15T12:11:11.939Z,53.20
2019-05-15T12:13:38.801Z,53.60
2019-05-15T12:16:08.013Z,53.20
2019-05-15T12:18:38.979Z,53.80
2019-05-15T12:21:07.988Z,54.10
2019-05-15T12:23:38.749Z,53.00
2019-05-15T12:26:09.056Z,53.40
2019-05-15T12:28:40.510Z,54.70
2019-05-15T12:31:09.227Z,53.10
2019-05-15T12:33:38.913Z,51.90
2019-05-15T12:36:10.786Z,51.90
2019-05-15T12:38:39.818Z,52.60
2019-05-15T13:01:18.211Z,45.50
2019-05-15T13:03:45.802Z,45.30
2019-05-15T13:06:14.843Z,43.60
2019-05-15T13:08:43.864Z,44.00
2019-05-15T13:11:15.237Z,43.30
2019-05-15T13:13:43.695Z,44.20
2019-05-15T13:16:12.713Z,43.90
2019-05-15T13:18:41.948Z,44.80
2019-05-15T13:21:11.157Z,44.50
2019-05-15T13:23:40.439Z,44.20
2019-05-15T13:26:23.062Z,44.20
2019-05-15T13:28:40.149Z,44.00
2019-05-15T13:31:09.357Z,44.40
2019-05-15T13:33:38.786Z,44.70
2019-05-15T13:36:08.896Z,45.20
2019-05-15T13:38:38.376Z,45.30
2019-05-15T13:41:09.427Z,45.40
2019-05-15T13:43:38.738Z,45.40
2019-05-15T13:46:08.855Z,45.50
2019-05-15T13:48:38.582Z,46.40
2019-05-15T13:51:07.997Z,45.80
2019-05-15T13:53:38.538Z,45.50
2019-05-15T13:56:07.876Z,45.20
2019-05-15T13:58:38.775Z,44.80
2019-05-15T14:01:09.470Z,44.50
2019-05-15T14:03:39.151Z,45.00
2019-05-15T14:06:09.391Z,45.90
2019-05-15T14:08:39.143Z,46.10
2019-05-15T14:11:08.746Z,46.60
2019-05-15T14:13:39.205Z,46.90
2019-05-15T14:16:09.684Z,47.30
2019-05-15T14:18:39.174Z,47.10
2019-05-15T14:21:08.904Z,46.90
2019-05-15T14:23:38.507Z,46.50
2019-05-15T14:26:17.894Z,47.10
2019-05-15T14:28:38.899Z,47.90
2019-05-15T14:31:09.721Z,49.40
2019-05-15T14:33:39.150Z,47.50
2019-05-15T14:36:08.544Z,47.40
2019-05-15T14:38:37.996Z,47.30
2019-05-15T14:41:08.811Z,47.40
2019-05-15T14:43:38.473Z,46.80
2019-05-15T14:46:08.211Z,47.00
2019-05-15T14:48:38.651Z,47.70
2019-05-15T14:51:08.736Z,48.80
2019-05-15T14:53:38.554Z,50.60
2019-05-15T14:56:08.442Z,51.20
2019-05-15T14:58:38.736Z,51.10
2019-05-15T15:01:12.159Z,48.70
2019-05-15T15:03:38.814Z,47.90
2019-05-15T15:06:08.651Z,48.60
2019-05-15T15:08:38.067Z,47.20
2019-05-15T15:11:08.742Z,47.10
2019-05-15T15:13:38.221Z,47.30
2019-05-15T15:16:08.390Z,47.70
2019-05-15T15:18:38.579Z,48.10
2019-05-15T15:21:08.612Z,48.60
2019-05-15T15:23:38.801Z,47.60
2019-05-15T15:26:08.386Z,48.70
2019-05-15T15:28:39.997Z,48.40
2019-05-15T15:31:08.557Z,47.80
2019-05-15T15:33:39.148Z,46.70
2019-05-15T15:36:08.821Z,47.60
2019-05-15T15:38:43.685Z,47.60
2019-05-15T15:41:09.251Z,48.10
2019-05-15T15:43:38.923Z,47.40
2019-05-15T15:46:08.587Z,47.00
2019-05-15T15:48:39.112Z,47.10
2019-05-15T15:51:09.113Z,46.50
2019-05-15T15:53:39.063Z,47.10
2019-05-15T15:56:10.672Z,49.20
2019-05-15T15:58:39.171Z,47.70
2019-05-15T16:01:09.021Z,48.30
2019-05-15T16:03:38.387Z,48.70
2019-05-15T16:06:07.702Z,48.70
2019-05-15T16:08:51.259Z,48.20
2019-05-15T16:11:08.112Z,48.30
2019-05-15T16:13:38.620Z,47.30
2019-05-15T16:16:08.588Z,47.60
2019-05-15T16:18:38.367Z,46.30
2019-05-15T16:21:08.299Z,45.70
2019-05-15T16:23:38.548Z,45.70
2019-05-15T16:26:09.258Z,45.90
2019-05-15T16:28:38.894Z,46.10
2019-05-15T16:31:08.251Z,46.30
2019-05-15T16:33:39.043Z,46.40
2019-05-15T16:36:08.794Z,46.80
2019-05-15T16:38:38.982Z,47.50
2019-05-15T16:41:08.975Z,46.90
2019-05-15T16:43:38.272Z,46.30
2019-05-15T16:46:09.142Z,46.40
2019-05-15T16:48:38.990Z,46.90
2019-05-15T16:51:09.271Z,46.70
2019-05-15T16:53:38.717Z,46.80
2019-05-15T16:56:07.797Z,47.40
2019-05-15T16:58:38.524Z,47.80
2019-05-15T17:01:07.559Z,47.60
2019-05-15T17:03:38.036Z,48.30
2019-05-15T17:06:09.402Z,48.10
2019-05-15T17:08:38.097Z,48.30
2019-05-15T17:11:08.082Z,47.90
2019-05-15T17:13:39.388Z,47.20
2019-05-15T17:16:08.314Z,47.50
2019-05-15T17:18:38.171Z,46.80
2019-05-15T17:21:10.113Z,46.90
2019-05-15T17:23:38.315Z,47.70
2019-05-15T17:26:08.828Z,48.20
2019-05-15T17:28:38.315Z,47.10
2019-05-15T17:31:09.226Z,47.40
2019-05-15T17:33:38.686Z,48.50
2019-05-15T17:36:07.693Z,48.00
2019-05-15T17:38:38.111Z,48.20
2019-05-15T17:41:08.916Z,48.30
2019-05-15T17:43:38.193Z,48.30
2019-05-15T17:46:08.896Z,49.10
2019-05-15T17:48:38.876Z,49.90
2019-05-15T17:51:09.109Z,49.70
2019-05-15T17:53:38.512Z,50.10
2019-05-15T17:56:07.586Z,49.50
2019-05-15T17:58:38.121Z,49.80
2019-05-15T18:01:08.801Z,48.90
2019-05-15T18:03:39.213Z,48.50
2019-05-15T18:06:08.580Z,49.10
2019-05-15T18:08:39.067Z,49.20
2019-05-15T18:11:08.661Z,48.70
2019-05-15T18:13:38.209Z,48.80
2019-05-15T18:16:12.479Z,49.70
2019-05-15T18:18:38.457Z,49.70
2019-05-15T18:21:08.836Z,49.80
2019-05-15T18:23:39.052Z,49.70
2019-05-15T18:26:08.997Z,50.00
2019-05-15T18:28:38.877Z,50.00
2019-05-15T18:31:08.967Z,50.30
2019-05-15T18:33:46.464Z,50.00
2019-05-15T18:36:09.661Z,50.40
2019-05-15T18:38:38.964Z,50.40
2019-05-15T18:41:09.044Z,51.00
2019-05-15T18:43:38.374Z,51.80
2019-05-15T18:46:08.997Z,51.40
2019-05-15T18:48:38.318Z,51.40
2019-05-15T18:51:08.060Z,51.70
2019-05-15T18:53:38.809Z,51.80
2019-05-15T18:56:08.923Z,51.90
2019-05-15T18:58:39.701Z,52.00
2019-05-15T19:01:09.355Z,52.40
2019-05-15T19:03:38.709Z,52.90
2019-05-15T19:06:08.902Z,54.40
2019-05-15T19:08:38.866Z,55.30
2019-05-15T19:11:08.273Z,57.50
2019-05-15T19:13:38.979Z,59.00
2019-05-15T19:16:08.330Z,60.80
2019-05-15T19:18:38.533Z,63.10
2019-05-15T19:21:08.169Z,65.20
2019-05-15T19:23:38.162Z,67.30
2019-05-15T19:26:09.256Z,68.90
2019-05-15T19:28:39.230Z,70.00
2019-05-15T19:31:08.958Z,71.60
2019-05-15T19:33:41.221Z,74.20
2019-05-15T19:36:09.558Z,74.50
2019-05-15T19:38:38.737Z,75.80
2019-05-15T19:41:09.694Z,76.30
2019-05-15T19:43:38.811Z,77.80
2019-05-15T19:46:08.086Z,79.50
2019-05-15T19:48:38.585Z,80.20
2019-05-15T19:51:09.036Z,80.90
2019-05-15T19:53:38.260Z,82.20
2019-05-15T19:56:08.435Z,82.60
2019-05-15T19:58:37.565Z,83.10
2019-05-15T20:01:08.068Z,83.20
2019-05-15T20:03:49.228Z,83.80
2019-05-15T20:06:08.531Z,84.20
2019-05-15T20:08:38.552Z,84.40
2019-05-15T20:11:10.298Z,83.60
2019-05-15T20:13:38.606Z,83.40
2019-05-15T20:16:07.879Z,82.60
2019-05-15T20:18:38.615Z,82.40
2019-05-15T20:21:08.867Z,81.60
2019-05-15T20:23:38.281Z,80.90
2019-05-15T20:26:08.384Z,80.60
2019-05-15T20:28:39.164Z,80.00
2019-05-15T20:31:08.510Z,79.60
2019-05-15T20:33:37.878Z,78.80
2019-05-15T20:36:09.094Z,78.50
2019-05-15T20:38:39.520Z,78.50
2019-05-15T20:41:09.058Z,78.70
2019-05-15T20:43:38.524Z,78.70
2019-05-15T20:46:08.497Z,78.70
2019-05-15T20:48:38.250Z,78.40
2019-05-15T20:51:07.433Z,78.90
2019-05-15T20:53:38.064Z,78.40
2019-05-15T20:56:08.344Z,78.40
2019-05-15T20:58:38.362Z,78.00
2019-05-15T21:01:09.191Z,78.10
2019-05-15T21:03:38.346Z,78.20
2019-05-15T21:06:09.179Z,78.30
2019-05-15T21:08:38.166Z,78.40
2019-05-15T21:11:11.381Z,77.90
2019-05-15T21:13:41.041Z,77.30
2019-05-15T21:16:11.703Z,76.70
2019-05-15T21:18:41.561Z,76.10
2019-05-15T21:21:10.862Z,76.30
2019-05-15T21:23:39.951Z,77.10
2019-05-15T21:26:11.061Z,77.00
2019-05-15T21:28:39.766Z,76.90
2019-05-15T21:31:09.436Z,76.60
2019-05-15T21:33:38.691Z,75.90
2019-05-15T21:36:07.993Z,75.80
2019-05-15T21:38:38.847Z,77.30
2019-05-15T21:41:08.087Z,78.20
2019-05-15T21:43:37.200Z,77.30
2019-05-15T21:46:08.494Z,75.60
2019-05-15T21:48:38.348Z,74.80
2019-05-15T21:51:11.311Z,73.40
2019-05-15T21:53:38.898Z,72.60
2019-05-15T21:56:08.596Z,70.80
2019-05-15T21:58:38.320Z,67.60
2019-05-15T22:01:10.570Z,66.90
2019-05-15T22:03:40.044Z,67.10
2019-05-15T22:06:09.265Z,67.60
2019-05-15T22:08:38.517Z,69.10
2019-05-15T22:11:08.257Z,69.10
2019-05-15T22:13:39.317Z,69.90
2019-05-15T22:16:08.601Z,71.20
2019-05-15T22:18:38.477Z,72.00
2019-05-15T22:21:08.028Z,72.70
2019-05-15T22:23:38.502Z,73.90
2019-05-15T22:26:07.982Z,74.60
2019-05-15T22:28:38.612Z,74.70
2019-05-15T22:31:08.862Z,75.10
2019-05-15T22:33:38.148Z,75.40
2019-05-15T22:36:08.388Z,75.70
2019-05-15T22:38:37.660Z,76.00
2019-05-15T22:41:08.271Z,75.90
2019-05-15T22:43:39.227Z,76.70
2019-05-15T22:46:11.020Z,76.50
2019-05-15T22:48:39.384Z,76.50
2019-05-15T22:51:08.552Z,76.90
2019-05-15T22:53:38.318Z,76.80
2019-05-15T22:56:09.301Z,77.40
2019-05-15T22:58:38.786Z,77.60
2019-05-15T23:01:09.127Z,77.50
2019-05-15T23:03:39.560Z,77.70
2019-05-15T23:06:08.990Z,77.60
2019-05-15T23:08:38.585Z,77.90
2019-05-15T23:11:09.489Z,78.20
2019-05-15T23:13:39.057Z,78.60
2019-05-15T23:16:08.462Z,79.00
2019-05-15T23:18:37.584Z,79.10
2019-05-15T23:21:08.886Z,79.40
2019-05-15T23:23:38.073Z,79.60
2019-05-15T23:26:07.291Z,79.50
2019-05-15T23:28:38.514Z,79.50
2019-05-15T23:31:08.306Z,79.70
2019-05-15T23:33:38.724Z,80.00
2019-05-15T23:36:08.012Z,80.00
2019-05-15T23:38:38.445Z,79.90
2019-05-15T23:41:08.247Z,80.10
2019-05-15T23:43:38.949Z,80.20
2019-05-15T23:46:08.301Z,80.60
2019-05-15T23:48:38.294Z,80.80
2019-05-15T23:51:08.552Z,81.30
2019-05-15T23:53:38.004Z,81.50
2019-05-15T23:56:09.257Z,81.00
2019-05-15T23:58:38.120Z,81.50
